This is the latest recevied weather packets stored in our database for station/object KQ4PPF. If no packets are shown the sender has not sent any weather packets the latest 10 day(s).
| Time | Temp. | Humidity | Pressure | Rain* | Wind** | Luminosity | Snow |
|---|---|---|---|---|---|---|---|
| 1787860665 | 30.56° C | 66% | 1013.3 hPa | 0 mm | - | 53 W/m² | - |
| 1787860359 | 30.56° C | 66% | 1013.2 hPa | 0 mm | - | 68 W/m² | - |
| 1787860055 | 30.56° C | 63% | 1013.2 hPa | 0 mm | - | 72 W/m² | - |
| 1787859749 | 30.56° C | 64% | 1013.4 hPa | 0 mm | - | 69 W/m² | - |
| 1787859444 | 30.56° C | 67% | 1013.4 hPa | 0 mm | - | 78 W/m² | - |
| 1787859144 | 30.56° C | 63% | 1013.5 hPa | 0 mm | - | 75 W/m² | - |
| 1787858841 | 30.56° C | 67% | 1013.7 hPa | 0 mm | - | 108 W/m² | - |
| 1787858537 | 30° C | 65% | 1013.8 hPa | 0 mm | - | 79 W/m² | - |
| 1787858236 | 30° C | 67% | 1013.8 hPa | 0 mm | - | 78 W/m² | - |
| 1787857932 | 29.44° C | 71% | 1013.9 hPa | 0 mm | - | 90 W/m² | - |
| 1787857628 | 30° C | 68% | 1013.6 hPa | 0 mm | - | 58 W/m² | - |
| 1787857327 | 30° C | 67% | 1013.9 hPa | 0 mm | - | 87 W/m² | - |
| 1787857026 | 29.44° C | 71% | 1013.8 hPa | 0 mm | - | 105 W/m² | - |
| 1787856721 | 29.44° C | 69% | 1013.8 hPa | 0 mm | - | 42 W/m² | - |
| 1787856415 | 29.44° C | 68% | 1014.1 hPa | 0 mm | - | 39 W/m² | - |
| 1787856110 | 30° C | 67% | 1014.1 hPa | 0 mm | - | 62 W/m² | - |
| 1787855805 | 30° C | 66% | 1013.9 hPa | 0 mm | - | 70 W/m² | - |
| 1787855500 | 31.67° C | 64% | 1014 hPa | 0 mm | - | 77 W/m² | - |
| 1787855196 | 31.67° C | 61% | 1014 hPa | 0 mm | - | 108 W/m² | - |
| 1787854891 | 31.11° C | 65% | 1014.1 hPa | 0 mm | - | 107 W/m² | - |
| 1787854585 | 31.11° C | 65% | 1014.3 hPa | 0 mm | - | 288 W/m² | - |
| 1787854279 | 31.11° C | 63% | 1014.4 hPa | 0 mm | - | 237 W/m² | - |
| 1787853975 | 30.56° C | 66% | 1014.4 hPa | 0 mm | - | 446 W/m² | - |
| 1787853669 | 29.44° C | 72% | 1014.6 hPa | 0 mm | - | 495 W/m² | - |
| 1787853368 | 29.44° C | 73% | 1014.6 hPa | 0 mm | - | 134 W/m² | - |
* Rain latest hour (hover to see other rain measurements)
** Current wind speed in m/s (hover to see current wind gust speed)